Tiempo atmosférico en la estación meteorológica de Morales del Toro, Zamora (710 m.)



Fecha
DESCASC
Temp. máxima en grados centígrados (hora)
DESCASC
Temp. mínima en grados centígrados (hora)
DESCASC
Temp. media en grados centígrados
DESCASC
Racha de viento máxima en m/sg (hora)
DESCASC
Velocidad máxima media en intervalos de 10 minutos(hora)
DESCASC
Precipitaciones diarias en mm
DESCASC
Precipitaciones de 00:00 a 06:00 en mm
DESCASC
Precipitaciones de 06:00 a 12:00 en mm
DESCASC
Precipitaciones de 12:00 a 18:00 en mm
DESCASC
Precipitaciones de 18:00 a 24:00 en mm
DESCASC
16-06-2019 29.6 (18:10) 7.7 (06:50) 18.7 7.78 (14:20) 4.44 (17:40) 0 0 0 0 0
15-06-2019 24.7 (19:10) 6.3 (06:20) 15.5 7.5 (17:40) 5 (00:30) 0 0 0 0 0
14-06-2019 22.6 (16:30) 6.1 (07:00) 14.4 14.17 (17:10) 9.72 (18:30) 0 0 0 0 0
13-06-2019 25 (17:30) 4.9 (00:00) 15 12.22 (15:10) 7.5 (17:40) 0 0 0 0 0
12-06-2019 23 (18:20) 3.1 (00:00) 13 8.89 (14:50) 4.44 (17:20) 0 0 0 0 0
11-06-2019 19.7 (17:00) 8.8 (00:00) 14.3 11.94 (18:50) 6.67 (12:50) 0 0 0 0 0
10-06-2019 24.3 (18:00) 5.6 (00:00) 14.9 11.11 (21:40) 7.78 (20:40) 0 0 0 0 0
09-06-2019 23.9 (16:50) 6.5 (00:00) 15.2 12.78 (19:50) 8.89 (19:50) 0 0 0 0 0
08-06-2019 24.6 (16:20) 4.4 (00:00) 14.5 8.61 (17:20) 3.89 (17:20) 0 0 0 0 0
07-06-2019 18.7 (19:00) 7.2 (00:00) 13 11.94 (13:30) 8.33 (03:30) 0.4 0.4 0 0 0
06-06-2019 22.5 (16:50) 5.1 (00:00) 13.8 20 (22:00) 13.06 (22:00) 3.2 0 0 0 3.2
05-06-2019 19.3 (16:10) 6.8 (00:00) 13 13.89 (16:40) 9.72 (18:30) 0.6 0.6 0 0 0
04-06-2019 23.4 (14:50) 11.5 (00:00) 17.4 13.61 (17:20) 10 (17:30) 0 0 0 0 0
03-06-2019 30.6 (17:30) 15 (00:00) 22.8 13.89 (18:40) 10.28 (18:40) 0 0 0 0 0
02-06-2019 31.8 (15:50) 13.8 (00:00) 22.8 15.56 (16:10) 10.56 (16:20) 0 0 0 0 0
01-06-2019 34 (18:20) 9.6 (00:00) 21.8 11.11 (16:00) 5.56 (16:10) 0 0 0 0 0
31-05-2019 33.1 (18:50) 11.3 (00:00) 22.2 8.61 (17:00) 5.28 (02:20) 0 0 0 0 0
30-05-2019 30.2 (18:10) 7.9 (00:00) 19.1 10.28 (17:40) 5.56 (20:20) 0 0 0 0 0
29-05-2019 25 (18:40) 4.7 (00:00) 14.8 10.28 (13:20) 6.67 (00:10) 0 0 0 0 0
28-05-2019 24.8 (18:00) 7.8 (00:00) 16.3 11.94 (21:30) 8.61 (20:50) 0 0 0 0 0
27-05-2019 27.4 (18:50) 8.6 (00:00) 18 11.94 (23:10) 9.72 (23:10) 0 0 0 0 0
26-05-2019 28.3 (20:00) 5.5 (00:00) 16.9 8.89 (22:40) 6.39 (22:20) 0 0 0 0 0
25-05-2019 22.9 (18:50) 5.3 (00:00) 14.1 10.56 (21:40) 7.78 (21:50) 0 0 0 0 0
24-05-2019 23 (18:40) 8 (00:00) 15.5 12.22 (19:50) 9.17 (21:10) 0 0 0 0 0
23-05-2019 26.8 (15:20) 11 (00:00) 18.9 11.67 (20:10) 7.78 (20:10) 0 0 0 0 0
22-05-2019 27.6 (17:30) 6.3 (00:00) 17 8.89 (16:10) 5.83 (01:00) 0 0 0 0 0
21-05-2019 25.5 (17:10) 5 (06:50) 15.3 8.61 (22:20) 6.39 (22:20) 0 0 0 0 0

Gráficas

Temp. máximas Temp. mínimas Temp. medias Precipitaciones Rachas de viento máximas Velocidades máximas media en intervalos de 10 minutos

Datos horarios

Fecha y hora oficial Temperatura (ºC) Velocidad del viento (km/h) Dirección del viento Racha (km/h) Dirección de racha Precipitación (mm) Presión (hPa) Tendencia (hPa) Humedad (%)
2019-06-19 23:00:00 17.2 11 Oeste 17 Oeste 0 -- -- 59
2019-06-19 22:00:00 19.7 11 Oeste 26 Oeste 0 -- -- 53
2019-06-19 21:00:00 21.6 17 Oeste 33 Sudoeste 0 -- -- 46
2019-06-19 20:00:00 23.5 22 Oeste 36 Oeste 0 -- -- 43
2019-06-19 19:00:00 23.9 23 Oeste 36 Oeste 0 -- -- 45
2019-06-19 18:00:00 22.9 25 Oeste 37 Oeste 0 -- -- 49
2019-06-19 17:00:00 23.1 21 Oeste 37 Sudoeste 0 -- -- 46
2019-06-19 16:00:00 23.2 24 Oeste 44 Sudoeste 0 -- -- 48
2019-06-19 15:00:00 22.3 27 Sudoeste 37 Sudoeste 0 -- -- 50
2019-06-19 14:00:00 23.2 24 Oeste 38 Oeste 0 -- -- 47
2019-06-19 13:00:00 21.4 18 Sudoeste 33 Sudoeste 0 -- -- 52
2019-06-19 12:00:00 19.2 18 Oeste 34 Sudoeste 0 -- -- 62
2019-06-19 11:00:00 17.1 21 Sudoeste 32 Oeste 0 -- -- 72
2019-06-19 10:00:00 17.6 23 Sudoeste 31 Sudoeste 0 -- -- 69
2019-06-19 09:00:00 17 18 Sudoeste 27 Sudoeste 0 -- -- 74
2019-06-19 08:00:00 15.9 10 Sudoeste 15 Sudoeste 0 -- -- 77
2019-06-19 07:00:00 13.7 3 Sur 8 Sudoeste 0 -- -- 84
2019-06-19 06:00:00 13.7 6 Sudoeste 28 Sudoeste 0 -- -- 83
2019-06-19 05:00:00 14.8 16 Sudoeste 24 Sudoeste 0 -- -- 79
2019-06-19 04:00:00 13.9 5 Sudoeste 12 Sudoeste 0 -- -- 85
2019-06-19 03:00:00 14.1 9 Sudoeste 25 Oeste 0 -- -- 83
2019-06-19 02:00:00 16 18 Sudoeste 24 Oeste 0 -- -- 77
2019-06-19 01:00:00 16.2 12 Oeste 19 Oeste 0 -- -- 74
2019-06-19 00:00:00 16.7 10 Oeste 15 Oeste 0 -- -- 69
2019-06-18 23:00:00 17.5 8 Oeste 36 Oeste 0 -- -- 65
2019-06-18 22:00:00 20.6 22 Sudoeste 43 Sudoeste 0 -- -- 52
2019-06-18 21:00:00 22.2 29 Sudoeste 45 Sudoeste 0 -- -- 44
2019-06-18 20:00:00 -- -- -- -- -- -- -- -- --
2019-06-18 19:00:00 -- -- -- -- -- -- -- -- --
2019-06-18 18:00:00 -- -- -- -- -- -- -- -- --
2019-06-18 17:00:00 -- -- -- -- -- -- -- -- --
2019-06-18 16:00:00 25.6 29 Sudoeste 56 Sur 0 -- -- 32
2019-06-18 15:00:00 26.5 39 Sudoeste 57 Sudoeste 0 -- -- 31
2019-06-18 14:00:00 26.4 32 Sudoeste 51 Sudoeste 0 -- -- 26
2019-06-18 13:00:00 25 37 Sudoeste 50 Sudoeste 0 -- -- 25
2019-06-18 12:00:00 24.7 32 Sudoeste 48 Sudoeste 0 -- -- 18
2019-06-18 11:00:00 23.5 26 Sur 39 Sur 0 -- -- 22
2019-06-18 10:00:00 21.2 24 Sudoeste 38 Sudoeste 0 -- -- 34
2019-06-18 09:00:00 19.4 17 Sudoeste 26 Sudoeste 0 -- -- 41
2019-06-18 08:00:00 17 2 Sur 8 Sudoeste 0 -- -- 45
2019-06-18 07:00:00 10.5 3 Nordeste 13 Nordeste 0 -- -- 64
2019-06-18 06:00:00 11.8 9 Nordeste 14 Norte 0 -- -- 60
2019-06-18 05:00:00 13.2 9 Nordeste 10 Nordeste 0 -- -- 52
2019-06-18 04:00:00 15.9 5 Sudeste 8 Sudeste 0 -- -- 45
2019-06-18 03:00:00 16.6 8 Sudeste 14 Sudeste 0 -- -- 45
2019-06-18 02:00:00 18 7 Nordeste 13 Norte 0 -- -- 40
2019-06-18 01:00:00 21 9 Nordeste 29 Este 0 -- -- 33
2019-06-18 00:00:00 21 13 Oeste 22 Noroeste 0 -- -- 32
2019-06-17 23:00:00 20.5 10 Noroeste 15 Noroeste 0 -- -- 34
2019-06-17 22:00:00 21.8 10 Noroeste 28 Oeste 0 -- -- 32
2019-06-17 21:00:00 23.9 18 Noroeste 30 Sudoeste 0 -- -- 29
2019-06-17 20:00:00 25.9 19 Oeste 36 Oeste 0 -- -- 23
2019-06-17 19:00:00 26.8 22 Oeste 38 Oeste 0 -- -- 22
2019-06-17 18:00:00 28.2 26 Sudoeste 42 Oeste 0 -- -- 18
2019-06-17 17:00:00 29.4 23 Sudoeste 40 Oeste 0 -- -- 18
2019-06-17 16:00:00 28.3 24 Sudoeste 39 Sudoeste 0 -- -- 19
2019-06-17 15:00:00 29.6 19 Sudoeste 39 Sudoeste 0 -- -- 19
2019-06-17 14:00:00 29.4 16 Sur 36 Sudoeste 0 -- -- 21
2019-06-17 13:00:00 26.8 20 Sur 34 Sur 0 -- -- 27
2019-06-17 12:00:00 24.3 6 Sudoeste 14 Sudeste 0 -- -- 36
2019-06-17 11:00:00 21.5 7 Sur 17 Sur 0 -- -- 50
2019-06-17 10:00:00 18.6 4 Sur 8 Sudeste 0 -- -- 56
2019-06-17 09:00:00 16.4 3 Sur 8 Sur 0 -- -- 56
2019-06-17 08:00:00 12.5 4 Este 6 Este 0 -- -- 57
2019-06-17 07:00:00 8.7 3 Este 9 Nordeste 0 -- -- 65
2019-06-17 06:00:00 10.5 0 Calma 10 Nordeste 0 -- -- 59
2019-06-17 05:00:00 11.6 5 Norte 10 Norte 0 -- -- 54
2019-06-17 04:00:00 12 7 Oeste 21 Sudoeste 0 -- -- 51
2019-06-17 03:00:00 13.1 11 Norte 13 Nordeste 0 -- -- 51
2019-06-17 02:00:00 14.6 5 Norte 9 Nordeste 0 -- -- 45
2019-06-17 01:00:00 17.9 0 Calma 8 Sudoeste 0 -- -- 35
2019-06-17 00:00:00 17.4 5 Oeste 13 Oeste 0 -- -- 36
2019-06-16 23:00:00 20.1 10 Oeste 17 Oeste 0 -- -- 32
2019-06-16 22:00:00 22.4 12 Oeste 17 Oeste 0 -- -- 29
2019-06-16 21:00:00 26 12 Oeste 23 Oeste 0 -- -- 23
2019-06-16 20:00:00 27.4 15 Oeste 23 Oeste 0 -- -- 23
2019-06-16 19:00:00 29.3 6 Noroeste 25 Sudoeste 0 -- -- 19
2019-06-16 18:00:00 28.8 8 Sudoeste 28 Sudoeste 0 -- -- 19
2019-06-16 17:00:00 28.5 5 Oeste 26 Oeste 0 -- -- 21
2019-06-16 16:00:00 28.9 6 Sudoeste 22 Oeste 0 -- -- 21
2019-06-16 15:00:00 26.5 10 Sur 28 Sudoeste 0 -- -- 23
2019-06-16 14:00:00 25.8 5 Sudeste 19 Sudoeste 0 -- -- 25
2019-06-16 13:00:00 24.2 6 Oeste 15 Oeste 0 -- -- 31
2019-06-16 12:00:00 22.4 3 Nordeste 10 Oeste 0 -- -- 35
2019-06-16 11:00:00 18.4 5 Oeste 10 Oeste 0 -- -- 46
2019-06-16 10:00:00 16.6 3 Este 9 Nordeste 0 -- -- 52
2019-06-16 09:00:00 13.8 3 Nordeste 9 Norte 0 -- -- 63
2019-06-16 08:00:00 10.4 4 Noroeste 7 Norte 0 -- -- 73
2019-06-16 07:00:00 7.7 5 Norte 12 Norte 0 -- -- 86
2019-06-16 06:00:00 7.9 8 Norte 12 Norte 0 -- -- 84
2019-06-16 05:00:00 8.6 8 Nordeste 14 Nordeste 0 -- -- 79
2019-06-16 04:00:00 8.8 12 Nordeste 15 Nordeste 0 -- -- 71
2019-06-16 03:00:00 9.2 11 Nordeste 14 Nordeste 0 -- -- 63
2019-06-16 02:00:00 12.7 5 Norte 10 Norte 0 -- -- 50
2019-06-16 01:00:00 13.8 6 Norte 9 Noroeste 0 -- -- 47
2019-06-16 00:00:00 14.8 7 Norte 11 Noroeste 0 -- -- 44
2019-06-15 23:00:00 16.3 10 Noroeste 14 Oeste 0 -- -- 40
2019-06-15 22:00:00 18.9 9 Oeste 14 Oeste 0 -- -- 36
2019-06-15 21:00:00 22.9 9 Oeste 14 Oeste 0 -- -- 29
2019-06-15 20:00:00 24.7 5 Oeste 22 Sudoeste 0 -- -- 24
2019-06-15 19:00:00 24.5 7 Oeste 22 Oeste 0 -- -- 23
2019-06-15 18:00:00 24.1 7 Sudoeste 27 Oeste 0 -- -- 25
2019-06-15 17:00:00 23.7 6 Oeste 26 Sudoeste 0 -- -- 27
2019-06-15 16:00:00 21.5 9 Sudoeste 22 Sudoeste 0 -- -- 33
2019-06-15 15:00:00 21.1 12 Sudoeste 18 Sudoeste 0 -- -- 33
2019-06-15 14:00:00 20.4 7 Sudeste 19 Oeste 0 -- -- 36
2019-06-15 13:00:00 18.4 10 Sudoeste 16 Sudoeste 0 -- -- 42
2019-06-15 12:00:00 16.5 10 Sudoeste 18 Sudoeste 0 -- -- 47
2019-06-15 11:00:00 15.3 7 Noroeste 14 Sudoeste 0 -- -- 53
2019-06-15 10:00:00 13.7 9 Oeste 20 Oeste 0 -- -- 60
2019-06-15 09:00:00 10.9 12 Oeste 19 Oeste 0 -- -- 72
2019-06-15 08:00:00 8.6 8 Oeste 13 Oeste 0 -- -- 81
2019-06-15 07:00:00 6.4 2 Oeste 10 Sudoeste 0 -- -- 85
2019-06-15 06:00:00 7.1 4 Oeste 7 Sudoeste 0 -- -- 83
2019-06-15 05:00:00 7.8 5 Oeste 15 Oeste 0 -- -- 79
2019-06-15 04:00:00 8.9 10 Oeste 17 Oeste 0 -- -- 74
2019-06-15 03:00:00 9.1 7 Oeste 25 Oeste 0 -- -- 71
2019-06-15 02:00:00 10.4 15 Oeste 21 Oeste 0 -- -- 66
2019-06-15 01:00:00 11.3 16 Sudoeste 25 Oeste 0 -- -- 62
2019-06-15 00:00:00 12.8 18 Oeste 32 Oeste 0 -- -- 58
2019-06-14 23:00:00 13.7 21 Oeste 41 Oeste 0 -- -- 53
2019-06-14 22:00:00 16.1 32 Oeste 44 Oeste 0 -- -- 38
2019-06-14 21:00:00 18.4 27 Oeste 42 Oeste 0 -- -- 33
2019-06-14 20:00:00 20 32 Oeste 43 Oeste 0 -- -- 32
2019-06-14 19:00:00 20.8 31 Oeste 47 Oeste 0 -- -- 32
2019-06-14 18:00:00 21.1 32 Oeste 51 Oeste 0 -- -- 32
2019-06-14 17:00:00 22 32 Sudoeste 48 Sudoeste 0 -- -- 29
2019-06-14 16:00:00 22.1 32 Sudoeste 44 Sudoeste 0 -- -- 30
2019-06-14 15:00:00 21.9 20 Sudoeste 45 Oeste 0 -- -- 31
2019-06-14 14:00:00 21.1 23 Sudoeste 41 Sudoeste 0 -- -- 36
2019-06-14 13:00:00 20.3 19 Sudoeste 35 Sudoeste 0 -- -- 36
2019-06-14 12:00:00 18.5 16 Sudoeste 26 Sudoeste 0 -- -- 44
2019-06-14 11:00:00 16.4 5 Sudoeste 11 Sudoeste 0 -- -- 56
2019-06-14 10:00:00 13.6 4 Sudoeste 9 Sudoeste 0 -- -- 66
2019-06-14 09:00:00 12.4 3 Noroeste 6 Noroeste 0 -- -- 70
2019-06-14 08:00:00 9.8 3 Norte 7 Norte 0 -- -- 80
2019-06-14 07:00:00 6.1 6 Norte 11 Norte 0 -- -- 90
2019-06-14 06:00:00 6.5 7 Norte 10 Nordeste 0 -- -- 87
2019-06-14 05:00:00 8.4 8 Norte 14 Norte 0 -- -- 83
2019-06-14 04:00:00 7.4 9 Norte 16 Nordeste 0 -- -- 76
2019-06-14 03:00:00 9.2 4 Este 15 Norte 0 -- -- 61
2019-06-14 02:00:00 11.4 10 Norte 14 Norte 0 -- -- 52
2019-06-14 01:00:00 12.3 7 Norte 14 Norte 0 -- -- 47
2019-06-14 00:00:00 13.9 12 Norte 15 Noroeste 0 -- -- 43
2019-06-13 23:00:00 14.1 10 Norte 18 Noroeste 0 -- -- 41
2019-06-13 22:00:00 17.8 17 Noroeste 32 Oeste 0 -- -- 33
2019-06-13 21:00:00 21.3 20 Oeste 34 Oeste 0 -- -- 28
2019-06-13 20:00:00 22.5 25 Oeste 39 Oeste 0 -- -- 27
2019-06-13 19:00:00 23.7 26 Oeste 40 Sudoeste 0 -- -- 26
2019-06-13 18:00:00 24.6 24 Oeste 42 Oeste 0 -- -- 22
2019-06-13 17:00:00 24.8 22 Sudoeste 44 Sudoeste 0 -- -- 20
2019-06-13 16:00:00 24 12 Sudoeste 44 Sudoeste 0 -- -- 25
2019-06-13 15:00:00 22.3 17 Sudoeste 31 Sudoeste 0 -- -- 29
2019-06-13 14:00:00 20.5 8 Sudoeste 33 Sudoeste 0 -- -- 34
2019-06-13 13:00:00 18.8 15 Oeste 25 Sudoeste 0 -- -- 37
2019-06-13 12:00:00 16.9 6 Oeste 17 Sudoeste 0 -- -- 46
2019-06-13 11:00:00 14.4 5 Sudoeste 11 Sudoeste 0 -- -- 58
2019-06-13 10:00:00 12.4 4 Sudoeste 8 Sudoeste 0 -- -- 64
2019-06-13 09:00:00 10.7 5 Nordeste 10 Norte 0 -- -- 72
2019-06-13 08:00:00 7.9 4 Nordeste 9 Norte 0 -- -- 80
2019-06-13 07:00:00 4.9 6 Norte 15 Norte 0 -- -- 90
2019-06-13 06:00:00 5.6 12 Norte 19 Norte 0 -- -- 87
2019-06-13 05:00:00 6.2 13 Norte 17 Norte 0 -- -- 80
2019-06-13 04:00:00 7.2 10 Norte 13 Norte 0 -- -- 67
2019-06-13 03:00:00 8.4 8 Norte 15 Norte 0 -- -- 58
2019-06-13 02:00:00 11.5 10 Norte 17 Norte 0 -- -- 49
2019-06-13 01:00:00 11.7 10 Norte 15 Noroeste 0 -- -- 42
2019-06-13 00:00:00 12.7 13 Noroeste 18 Noroeste 0 -- -- 39
2019-06-12 23:00:00 13.6 12 Noroeste 15 Noroeste 0 -- -- 34
2019-06-12 22:00:00 16.7 8 Oeste 15 Oeste 0 -- -- 28
2019-06-12 21:00:00 21.2 8 Noroeste 21 Oeste 0 -- -- 21
2019-06-12 20:00:00 22.3 8 Noroeste 26 Sudoeste 0 -- -- 21
2019-06-12 19:00:00 22.5 5 Noroeste 26 Oeste 0 -- -- 23
2019-06-12 18:00:00 21.6 10 Noroeste 29 Oeste 0 -- -- 23
2019-06-12 17:00:00 21.8 8 Sudoeste 23 Sudoeste 0 -- -- 24
2019-06-12 16:00:00 20 13 Sudoeste 25 Sudoeste 0 -- -- 24
2019-06-12 15:00:00 18.7 8 Norte 32 Sur 0 -- -- 27
2019-06-12 14:00:00 18.6 4 Noroeste 17 Sudeste 0 -- -- 30
2019-06-12 13:00:00 16.3 5 Norte 17 Nordeste 0 -- -- 33
2019-06-12 12:00:00 14.8 9 Nordeste 17 Este 0 -- -- 35
2019-06-12 11:00:00 13.3 8 Norte 19 Norte 0 -- -- 38
2019-06-12 10:00:00 12.2 10 Norte 21 Nordeste 0 -- -- 46
2019-06-12 09:00:00 11.1 10 Nordeste 18 Norte 0 -- -- 53
2019-06-12 08:00:00 7 7 Norte 12 Norte 0 -- -- 67
2019-06-12 07:00:00 3.1 5 Norte 10 Norte 0 -- -- 80
2019-06-12 06:00:00 4.2 8 Norte 10 Nordeste 0 -- -- 76
2019-06-12 05:00:00 4.4 8 Nordeste 9 Norte 0 -- -- 76
2019-06-12 04:00:00 5 4 Norte 5 Norte 0 -- -- 74
2019-06-12 03:00:00 5.1 4 Norte 7 Norte 0 -- -- 70
2019-06-12 02:00:00 6.2 8 Nordeste 13 Norte 0 -- -- 68
2019-06-12 01:00:00 7.7 6 Nordeste 23 Norte 0 -- -- 62
2019-06-12 00:00:00 8.8 9 Norte 15 Norte 0 -- -- 56
2019-06-11 23:00:00 10.6 6 Nordeste 26 Norte 0 -- -- 52
2019-06-11 22:00:00 13.9 18 Norte 30 Norte 0 -- -- 41
2019-06-11 21:00:00 16.6 20 Norte 30 Norte 0 -- -- 36
2019-06-11 20:00:00 18.5 18 Noroeste 34 Norte 0 -- -- 28
2019-06-11 19:00:00 19 20 Norte 43 Norte 0 -- -- 28
2019-06-11 18:00:00 18.1 22 Norte 41 Norte 0 -- -- 30
2019-06-11 17:00:00 19.7 21 Noroeste 34 Norte 0 -- -- 25
2019-06-11 16:00:00 17.8 19 Norte 34 Nordeste 0 -- -- 28
2019-06-11 15:00:00 17.6 16 Nordeste 38 Nordeste 0 -- -- 28
2019-06-11 14:00:00 17.2 19 Norte 38 Norte 0 -- -- 30
2019-06-11 13:00:00 16.6 19 Norte 37 Norte 0 -- -- 29
2019-06-11 12:00:00 15.2 21 Norte 38 Norte 0 -- -- 37
2019-06-11 11:00:00 13.6 19 Norte 31 Norte 0 -- -- 48
2019-06-11 10:00:00 13.4 11 Norte 25 Noroeste 0 -- -- 51
2019-06-11 09:00:00 10.9 15 Norte 24 Norte 0 -- -- 63
2019-06-11 08:00:00 10.2 5 Norte 8 Norte 0 -- -- 72
2019-06-11 07:00:00 9.9 5 Norte 7 Nordeste 0 -- -- 72
2019-06-11 06:00:00 9.9 6 Nordeste 9 Nordeste 0 -- -- 71
2019-06-11 05:00:00 9.8 5 Nordeste 12 Nordeste 0 -- -- 72
2019-06-11 04:00:00 9.7 10 Nordeste 16 Nordeste 0 -- -- 72
2019-06-11 03:00:00 10.6 10 Nordeste 28 Nordeste 0 -- -- 67
2019-06-11 02:00:00 11 18 Nordeste 30 Nordeste 0 -- -- 67
2019-06-11 01:00:00 12.4 18 Norte 28 Norte 0 -- -- 63
2019-06-11 00:00:00 15.1 14 Norte 31 Noroeste 0 -- -- 53
2019-06-10 23:00:00 16.8 21 Noroeste 34 Noroeste 0 -- -- 36
2019-06-10 22:00:00 18.5 23 Noroeste 40 Oeste 0 -- -- 32
2019-06-10 21:00:00 20.7 26 Oeste 40 Sudoeste 0 -- -- 31
2019-06-10 20:00:00 22.2 22 Sudoeste 34 Sudoeste 0 -- -- 28
2019-06-10 19:00:00 22.5 12 Oeste 33 Oeste 0 -- -- 28
2019-06-10 18:00:00 24.3 6 Sudoeste 24 Oeste 0 -- -- 27
2019-06-10 17:00:00 22.1 8 Oeste 29 Oeste 0 -- -- 30
2019-06-10 16:00:00 21.3 12 Oeste 26 Sudoeste 0 -- -- 30
2019-06-10 15:00:00 19.9 9 Oeste 24 Oeste 0 -- -- 34
2019-06-10 14:00:00 18.9 11 Noroeste 24 Noroeste 0 -- -- 41
2019-06-10 13:00:00 17.5 8 Sudoeste 21 Noroeste 0 -- -- 47
2019-06-10 12:00:00 17.1 8 Oeste 19 Noroeste 0 -- -- 50
2019-06-10 11:00:00 15.5 9 Nordeste 17 Nordeste 0 -- -- 55
2019-06-10 10:00:00 13.2 6 Nordeste 12 Nordeste 0 -- -- 67
2019-06-10 09:00:00 12 4 Este 7 Nordeste 0 -- -- 72
2019-06-10 08:00:00 8.3 3 Norte 6 Norte 0 -- -- 86
2019-06-10 07:00:00 5.7 2 Norte 9 Nordeste 0 -- -- 94
2019-06-10 06:00:00 6.3 7 Norte 9 Norte 0 -- -- 92
2019-06-10 05:00:00 6.7 3 Norte 5 Norte 0 -- -- 90
2019-06-10 04:00:00 7.2 5 Norte 7 Norte 0 -- -- 88
2019-06-10 03:00:00 7.6 4 Nordeste 14 Nordeste 0 -- -- 86
2019-06-10 02:00:00 9 11 Nordeste 14 Norte 0 -- -- 83
2019-06-10 01:00:00 10.1 8 Nordeste 26 Nordeste 0 -- -- 78
2019-06-10 00:00:00 12.6 17 Nordeste 28 Nordeste 0 -- -- 69
2019-06-09 23:00:00 15.5 11 Norte 23 Norte 0 -- -- 59
2019-06-09 22:00:00 16.8 15 Oeste 36 Oeste 0 -- -- 43
2019-06-09 21:00:00 20 23 Oeste 42 Oeste 0 -- -- 35
2019-06-09 20:00:00 21.5 31 Oeste 46 Oeste 0 -- -- 33
2019-06-09 19:00:00 21.1 27 Oeste 38 Sudoeste 0 -- -- 32
2019-06-09 18:00:00 23.5 26 Oeste 40 Sudoeste 0 -- -- 28
2019-06-09 17:00:00 23.3 22 Sudoeste 40 Oeste 0 -- -- 29
2019-06-09 16:00:00 22.9 19 Sudoeste 37 Oeste 0 -- -- 31
2019-06-09 15:00:00 22.9 17 Sudoeste 42 Oeste 0 -- -- 31
2019-06-09 14:00:00 21.4 18 Sudoeste 33 Sudoeste 0 -- -- 32
2019-06-09 13:00:00 19.9 19 Sudoeste 30 Sudoeste 0 -- -- 42
2019-06-09 12:00:00 18.7 13 Oeste 21 Sudoeste 0 -- -- 51
2019-06-09 11:00:00 16.2 12 Oeste 22 Oeste 0 -- -- 63
2019-06-09 10:00:00 13.6 11 Oeste 17 Oeste 0 -- -- 73
2019-06-09 09:00:00 11.9 3 Sudoeste 7 Nordeste 0 -- -- 77
2019-06-09 08:00:00 9.4 4 Nordeste 10 Norte 0 -- -- 87
2019-06-09 07:00:00 6.6 10 Nordeste 14 Norte 0 -- -- 95
2019-06-09 06:00:00 7 9 Norte 12 Norte 0 -- -- 93
2019-06-09 05:00:00 7.7 6 Norte 11 Norte 0 -- -- 91
2019-06-09 04:00:00 8.7 5 Nordeste 10 Norte 0 -- -- 88
2019-06-09 03:00:00 10.4 4 Noroeste 10 Noroeste 0 -- -- 82
2019-06-09 02:00:00 11.3 4 Norte 12 Noroeste 0 -- -- 78
2019-06-09 01:00:00 13.1 9 Norte 16 Noroeste 0 -- -- 50
2019-06-09 00:00:00 14.1 10 Oeste 12 Oeste 0 -- -- 46
2019-06-08 23:00:00 16.9 10 Noroeste 19 Noroeste 0 -- -- 40
2019-06-08 22:00:00 19.4 13 Noroeste 19 Oeste 0 -- -- 34
2019-06-08 21:00:00 21.6 9 Noroeste 15 Noroeste 0 -- -- 27
2019-06-08 20:00:00 22.9 7 Oeste 20 Oeste 0 -- -- 26
2019-06-08 19:00:00 24 12 Oeste 23 Oeste 0 -- -- 25
2019-06-08 18:00:00 23.9 5 Noroeste 31 Oeste 0 -- -- 24
2019-06-08 17:00:00 23.8 7 Oeste 21 Oeste 0 -- -- 24
2019-06-08 16:00:00 24.5 4 Este 14 Oeste 0 -- -- 23
2019-06-08 15:00:00 23.1 9 Sur 22 Este 0 -- -- 23
2019-06-08 14:00:00 22.5 3 Oeste 19 Este 0 -- -- 28
2019-06-08 13:00:00 20.7 7 Nordeste 24 Este 0 -- -- 32
2019-06-08 12:00:00 18.3 10 Nordeste 22 Este 0 -- -- 41
2019-06-08 11:00:00 16.5 13 Este 19 Este 0 -- -- 44
2019-06-08 10:00:00 13 7 Nordeste 13 Norte 0 -- -- 64
2019-06-08 09:00:00 9.9 6 Nordeste 11 Norte 0 -- -- 74
2019-06-08 08:00:00 6.7 6 Norte 11 Norte 0 -- -- 82
2019-06-08 07:00:00 4.4 7 Norte 9 Norte 0 -- -- 88
2019-06-08 06:00:00 5.1 2 Este 9 Este 0 -- -- 84
2019-06-08 05:00:00 5.5 6 Norte 15 Norte 0 -- -- 83
2019-06-08 04:00:00 6.8 12 Norte 16 Norte 0 -- -- 78
2019-06-08 03:00:00 7.1 12 Norte 16 Norte 0 -- -- 77
2019-06-08 02:00:00 7.5 10 Norte 15 Norte 0 -- -- 74
2019-06-08 01:00:00 7.9 11 Norte 16 Norte 0 -- -- 73
2019-06-08 00:00:00 9.5 12 Norte 19 Norte 0 -- -- 65
2019-06-07 23:00:00 10.4 10 Noroeste 14 Oeste 0 -- -- 60
2019-06-07 22:00:00 14 11 Oeste 18 Oeste 0 -- -- 48
2019-06-07 21:00:00 16.4 14 Oeste 24 Oeste 0 -- -- 40
2019-06-07 20:00:00 17.6 19 Sudoeste 29 Oeste 0 -- -- 35
2019-06-07 19:00:00 18.7 18 Oeste 30 Oeste 0 -- -- 33
2019-06-07 18:00:00 18 23 Oeste 36 Sudoeste 0 -- -- 33
2019-06-07 17:00:00 17.7 22 Oeste 42 Sudoeste 0 -- -- 35
2019-06-07 16:00:00 17 18 Oeste 38 Oeste 0 -- -- 36
2019-06-07 15:00:00 16 19 Sudoeste 36 Sudoeste 0 -- -- 42
2019-06-07 14:00:00 15.4 18 Oeste 43 Sudoeste 0 -- -- 44
2019-06-07 13:00:00 13.9 24 Oeste 39 Oeste 0 -- -- 49
2019-06-07 12:00:00 13.3 21 Oeste 36 Sudoeste 0 -- -- 52
2019-06-07 11:00:00 11.3 21 Oeste 36 Oeste 0 -- -- 67
2019-06-07 10:00:00 9.9 26 Sudoeste 38 Sudoeste 0 -- -- 72
2019-06-07 09:00:00 9 22 Sudoeste 41 Sudoeste 0 -- -- 79
2019-06-07 08:00:00 8.1 22 Sudoeste 34 Sudoeste 0 -- -- 84
2019-06-07 07:00:00 7.5 27 Sudoeste 39 Sudoeste 0 -- -- 86
2019-06-07 06:00:00 7.4 23 Sudoeste 33 Sudoeste 0 -- -- 87
2019-06-07 05:00:00 7.6 22 Sudoeste 30 Sudoeste 0 -- -- 88
2019-06-07 04:00:00 7.3 22 Sudoeste 39 Sudoeste 0 -- -- 87
2019-06-07 03:00:00 7.8 24 Sudoeste 35 Sudoeste 0 -- -- 88
2019-06-07 02:00:00 8.3 24 Sudoeste 40 Oeste 0 -- -- 87
2019-06-07 01:00:00 9.3 26 Sudoeste 38 Sudoeste 0.4 -- -- 89
2019-06-07 00:00:00 9 27 Sudoeste 49 Oeste 0.6 -- -- 89
2019-06-06 23:00:00 9.9 36 Oeste 67 Oeste 2.6 -- -- 91
2019-06-06 22:00:00 15.8 47 Sudoeste 72 Sudoeste 0 -- -- 59
2019-06-06 21:00:00 17.6 39 Sudoeste 69 Sudoeste 0 -- -- 46
2019-06-06 20:00:00 18 37 Sudoeste 66 Sudoeste 0 -- -- 44
2019-06-06 19:00:00 19.6 40 Sudoeste 67 Sur 0 -- -- 39
2019-06-06 18:00:00 20.3 39 Sudoeste 57 Sudoeste 0 -- -- 35
2019-06-06 17:00:00 22.3 35 Sur 52 Sur 0 -- -- 30
2019-06-06 16:00:00 20.8 30 Sur 52 Sur 0 -- -- 29
2019-06-06 15:00:00 20.7 31 Sur 43 Sur 0 -- -- 29
2019-06-06 14:00:00 20.4 21 Sur 45 Sur 0 -- -- 30
2019-06-06 13:00:00 16.8 17 Sur 29 Sur 0 -- -- 38
2019-06-06 12:00:00 15.5 18 Sur 27 Sudoeste 0 -- -- 43
2019-06-06 11:00:00 13.7 13 Sur 21 Sur 0 -- -- 50
2019-06-06 10:00:00 12.5 5 Sur 13 Sur 0 -- -- 53
2019-06-06 09:00:00 11 3 Sur 8 Sudoeste 0 -- -- 61
2019-06-06 08:00:00 8.4 2 Noroeste 8 Oeste 0 -- -- 67
2019-06-06 07:00:00 5.6 2 Sudoeste 3 Sudoeste 0 -- -- 76
2019-06-06 06:00:00 6.6 0 Calma 4 Este 0 -- -- 74
2019-06-06 05:00:00 6.1 0 Calma 15 Oeste 0 -- -- 73
2019-06-06 04:00:00 7.5 9 Oeste 13 Oeste 0 -- -- 67
2019-06-06 03:00:00 7.9 5 Noroeste 6 Noroeste 0 -- -- 65
2019-06-06 02:00:00 9.2 3 Oeste 17 Oeste 0 -- -- 62
2019-06-06 01:00:00 10.5 8 Norte 14 Oeste 0 -- -- 56
2019-06-06 00:00:00 12.1 9 Oeste 22 Oeste 0 -- -- 51
2019-06-05 23:00:00 12.7 14 Oeste 23 Oeste 0 -- -- 48
2019-06-05 22:00:00 13.3 17 Oeste 35 Oeste 0 -- -- 45
2019-06-05 21:00:00 14.8 30 Oeste 41 Oeste 0 -- -- 41
2019-06-05 20:00:00 15.7 26 Oeste 44 Oeste 0 -- -- 38
2019-06-05 19:00:00 16.9 30 Sudoeste 50 Sudoeste 0 -- -- 34
2019-06-05 18:00:00 17.5 32 Oeste 46 Oeste 0 -- -- 34
2019-06-05 17:00:00 18.4 30 Oeste 50 Sudoeste 0 -- -- 29
2019-06-05 16:00:00 18.8 30 Oeste 45 Oeste 0 -- -- 29
2019-06-05 15:00:00 18.5 28 Oeste 49 Oeste 0 -- -- 33
2019-06-05 14:00:00 17.1 26 Oeste 41 Oeste 0 -- -- 39
2019-06-05 13:00:00 16 17 Sudoeste 32 Oeste 0 -- -- 43
2019-06-05 12:00:00 15.1 21 Oeste 32 Oeste 0 -- -- 46
2019-06-05 11:00:00 13.4 18 Oeste 30 Oeste 0 -- -- 53
2019-06-05 10:00:00 11.7 23 Oeste 36 Oeste 0 -- -- 65
2019-06-05 09:00:00 10.6 22 Oeste 31 Sudoeste 0 -- -- 72
2019-06-05 08:00:00 8.4 20 Oeste 36 Oeste 0 -- -- 81
2019-06-05 07:00:00 7.6 15 Oeste 23 Oeste 0 -- -- 84
2019-06-05 06:00:00 7.2 14 Oeste 27 Oeste 0 -- -- 84
2019-06-05 05:00:00 9.1 14 Oeste 25 Oeste 0 -- -- 78
2019-06-05 04:00:00 10.2 11 Oeste 22 Noroeste 0 -- -- 79
2019-06-05 03:00:00 10.6 9 Noroeste 17 Noroeste 0 -- -- 79
2019-06-05 02:00:00 10.9 6 Norte 32 Oeste 0.6 -- -- 80
2019-06-05 01:00:00 13.8 24 Oeste 39 Oeste 0 -- -- 52
2019-06-05 00:00:00 15.3 18 Oeste 34 Oeste 0 -- -- 50
2019-06-04 23:00:00 15.5 14 Oeste 29 Oeste 0 -- -- 51
2019-06-04 22:00:00 16.3 22 Oeste 33 Oeste 0 -- -- 50
2019-06-04 21:00:00 17.8 24 Oeste 41 Oeste 0 -- -- 49
2019-06-04 20:00:00 18.6 22 Oeste 40 Oeste 0 -- -- 47
2019-06-04 19:00:00 18.6 27 Oeste 46 Oeste 0 -- -- 53
2019-06-04 18:00:00 19.9 30 Oeste 49 Oeste 0 -- -- 51
2019-06-04 17:00:00 22.4 31 Oeste 45 Oeste 0 -- -- 47
2019-06-04 16:00:00 22.5 24 Oeste 39 Oeste 0 -- -- 42
2019-06-04 15:00:00 22.8 24 Sudoeste 42 Sudoeste 0 -- -- 42
2019-06-04 14:00:00 22.7 20 Sudoeste 38 Sur 0 -- -- 44
2019-06-04 13:00:00 20 19 Sudoeste 36 Sudoeste 0 -- -- 52
2019-06-04 12:00:00 17.6 26 Sudoeste 43 Oeste 0 -- -- 59
2019-06-04 11:00:00 16.4 24 Oeste 41 Oeste 0 -- -- 63
2019-06-04 10:00:00 15.6 26 Sudoeste 41 Oeste 0 -- -- 65
2019-06-04 09:00:00 14 21 Sudoeste 30 Sudoeste 0 -- -- 74
2019-06-04 08:00:00 13 13 Sudoeste 18 Sudoeste 0 -- -- 80
2019-06-04 07:00:00 11.6 9 Sudoeste 15 Sudoeste 0 -- -- 86
2019-06-04 06:00:00 12.1 9 Sudoeste 17 Oeste 0 -- -- 85
2019-06-04 05:00:00 13.4 10 Sudoeste 15 Sudoeste 0 -- -- 81
2019-06-04 04:00:00 14.2 8 Sudoeste 16 Sudoeste 0 -- -- 78
2019-06-04 03:00:00 15.2 8 Sudoeste 18 Oeste 0 -- -- 74
2019-06-04 02:00:00 16.5 6 Oeste 17 Oeste 0 -- -- 70
2019-06-04 01:00:00 17.7 13 Oeste 20 Oeste 0 -- -- 66
2019-06-04 00:00:00 19.6 14 Oeste 28 Oeste 0 -- -- 61
2019-06-03 23:00:00 21.6 15 Oeste 27 Oeste 0 -- -- 56
2019-06-03 22:00:00 23.8 17 Oeste 27 Oeste 0 -- -- 42
2019-06-03 21:00:00 26 19 Oeste 39 Oeste 0 -- -- 34
2019-06-03 20:00:00 28.4 26 Oeste 42 Oeste 0 -- -- 29
2019-06-03 19:00:00 28.9 30 Oeste 50 Sudoeste 0 -- -- 27
2019-06-03 18:00:00 30.1 28 Sudoeste 45 Sudoeste 0 -- -- 25
2019-06-03 17:00:00 30.3 27 Sudoeste 44 Sudoeste 0 -- -- 21
2019-06-03 16:00:00 29.7 20 Sudoeste 37 Sudoeste 0 -- -- 21
2019-06-03 15:00:00 29.1 18 Sudoeste 34 Sudoeste 0 -- -- 22
2019-06-03 14:00:00 28.1 12 Sudoeste 29 Sudoeste 0 -- -- 25
2019-06-03 13:00:00 25.7 12 Sudoeste 24 Sudoeste 0 -- -- 28
2019-06-03 12:00:00 24.6 14 Sudoeste 23 Oeste 0 -- -- 30
2019-06-03 11:00:00 22.1 13 Sudoeste 20 Sudoeste 0 -- -- 39
2019-06-03 10:00:00 20.4 14 Oeste 22 Oeste 0 -- -- 41
2019-06-03 09:00:00 18 9 Sudoeste 13 Sudoeste 0 -- -- 48
2019-06-03 08:00:00 16.5 6 Sudoeste 8 Sudoeste 0 -- -- 48
2019-06-03 07:00:00 15.5 3 Oeste 13 Sudoeste 0 -- -- 49
2019-06-03 06:00:00 16.9 11 Oeste 16 Oeste 0 -- -- 46
2019-06-03 05:00:00 17 6 Oeste 9 Oeste 0 -- -- 46
2019-06-03 04:00:00 18 5 Sudoeste 10 Sudoeste 0 -- -- 43
2019-06-03 03:00:00 18.7 5 Sudoeste 9 Oeste 0 -- -- 39
2019-06-03 02:00:00 19 5 Oeste 15 Oeste 0 -- -- 38
2019-06-03 01:00:00 19.9 11 Oeste 15 Oeste 0 -- -- 38
2019-06-03 00:00:00 20.6 9 Oeste 15 Oeste 0 -- -- 36
2019-06-02 23:00:00 21.9 11 Oeste 17 Oeste 0 -- -- 33
2019-06-02 22:00:00 24.1 12 Oeste 23 Oeste 0 -- -- 28
2019-06-02 21:00:00 27.1 13 Oeste 27 Oeste 0 -- -- 24
2019-06-02 20:00:00 28.6 24 Oeste 40 Oeste 0 -- -- 22
2019-06-02 19:00:00 29.6 23 Oeste 39 Oeste 0 -- -- 21
2019-06-02 18:00:00 30.3 30 Oeste 47 Oeste 0 -- -- 20
2019-06-02 17:00:00 30.8 30 Oeste 56 Sudoeste 0 -- -- 19
2019-06-02 16:00:00 31.1 32 Oeste 46 Oeste 0 -- -- 19
2019-06-02 15:00:00 31.1 26 Sudoeste 48 Sudoeste 0 -- -- 18
2019-06-02 14:00:00 31.1 13 Sudoeste 28 Sudoeste 0 -- -- 18
2019-06-02 13:00:00 29.5 16 Sudoeste 31 Sudoeste 0 -- -- 19
2019-06-02 12:00:00 27.6 15 Sudoeste 24 Sudoeste 0 -- -- 21
2019-06-02 11:00:00 25.4 18 Sudoeste 24 Sudoeste 0 -- -- 27
2019-06-02 10:00:00 22.6 12 Sudoeste 16 Sudoeste 0 -- -- 36
2019-06-02 09:00:00 19.9 5 Sudoeste 9 Oeste 0 -- -- 44
2019-06-02 08:00:00 19.8 0 Calma 8 Noroeste 0 -- -- 44
2019-06-02 07:00:00 13.8 6 Noroeste 13 Oeste 0 -- -- 57
2019-06-02 06:00:00 15.2 7 Oeste 10 Oeste 0 -- -- 53
2019-06-02 05:00:00 15.4 5 Sur 6 Sudeste 0 -- -- 52
2019-06-02 04:00:00 15.7 6 Noroeste 15 Oeste 0 -- -- 53
2019-06-02 03:00:00 16.1 9 Oeste 10 Oeste 0 -- -- 52
2019-06-02 02:00:00 18.5 6 Noroeste 13 Noroeste 0 -- -- 45
2019-06-02 01:00:00 18.9 9 Noroeste 12 Noroeste 0 -- -- 44
2019-06-02 00:00:00 20.9 9 Oeste 15 Oeste 0 -- -- 39
2019-06-01 23:00:00 24.4 13 Norte 15 Norte 0 -- -- 31
2019-06-01 22:00:00 26.3 11 Noroeste 18 Oeste 0 -- -- 28
2019-06-01 21:00:00 31.1 13 Oeste 20 Oeste 0 -- -- 21
2019-06-01 20:00:00 33.3 13 Oeste 32 Oeste 0 -- -- 18
2019-06-01 19:00:00 33.6 11 Sudoeste 22 Sudoeste 0 -- -- 18
2019-06-01 18:00:00 33.5 7 Noroeste 26 Oeste 0 -- -- 18
2019-06-01 17:00:00 33.3 13 Oeste 32 Oeste 0 -- -- 17
2019-06-01 16:00:00 33.1 19 Oeste 40 Sudoeste 0 -- -- 16
2019-06-01 15:00:00 32.6 9 Sur 21 Sur 0 -- -- 19
2019-06-01 14:00:00 31.9 8 Sur 17 Sudoeste 0 -- -- 21
2019-06-01 13:00:00 29.9 8 Sur 14 Sur 0 -- -- 26
2019-06-01 12:00:00 26.7 7 Sur 12 Sur 0 -- -- 30
2019-06-01 11:00:00 23.5 4 Sudoeste 9 Sudoeste 0 -- -- 36
2019-06-01 10:00:00 21.4 4 Sur 10 Sudoeste 0 -- -- 39
2019-06-01 09:00:00 18.7 5 Sudeste 9 Sudeste 0 -- -- 45
2019-06-01 08:00:00 14.9 3 Norte 15 Nordeste 0 -- -- 52
2019-06-01 07:00:00 9.6 12 Nordeste 15 Nordeste 0 -- -- 69
2019-06-01 06:00:00 12.5 13 Nordeste 15 Norte 0 -- -- 57
2019-06-01 05:00:00 13.9 7 Norte 12 Noroeste 0 -- -- 47
2019-06-01 04:00:00 13.6 8 Norte 12 Noroeste 0 -- -- 46
2019-06-01 03:00:00 14.7 4 Este 9 Nordeste 0 -- -- 45
2019-06-01 02:00:00 15.7 7 Nordeste 13 Norte 0 -- -- 41
2019-06-01 01:00:00 16.7 10 Nordeste 15 Norte 0 -- -- 38
2019-06-01 00:00:00 16.7 10 Norte 14 Norte 0 -- -- 41
2019-05-31 23:00:00 20 11 Norte 13 Norte 0 -- -- 38
2019-05-31 22:00:00 25.3 0 Calma 4 Nordeste 0 -- -- 26
2019-05-31 21:00:00 30.5 7 Nordeste 10 Norte 0 -- -- 16
2019-05-31 20:00:00 32.4 5 Norte 19 Oeste 0 -- -- 16
2019-05-31 19:00:00 32.2 8 Norte 19 Norte 0 -- -- 15
2019-05-31 18:00:00 32.7 7 Este 21 Este 0 -- -- 15
2019-05-31 17:00:00 31.9 9 Oeste 31 Norte 0 -- -- 16
2019-05-31 16:00:00 30.7 11 Oeste 22 Oeste 0 -- -- 17
2019-05-31 15:00:00 30.3 10 Nordeste 23 Nordeste 0 -- -- 19
2019-05-31 14:00:00 28.9 10 Norte 22 Nordeste 0 -- -- 23
2019-05-31 13:00:00 28.1 9 Nordeste 21 Nordeste 0 -- -- 28
2019-05-31 12:00:00 26.5 10 Nordeste 18 Nordeste 0 -- -- 30
2019-05-31 11:00:00 24.6 5 Nordeste 14 Norte 0 -- -- 37
2019-05-31 10:00:00 22 4 Nordeste 9 Norte 0 -- -- 44
2019-05-31 09:00:00 17.6 7 Nordeste 17 Norte 0 -- -- 58
2019-05-31 08:00:00 13.5 14 Nordeste 19 Norte 0 -- -- 69
2019-05-31 07:00:00 11.7 10 Norte 16 Norte 0 -- -- 72
2019-05-31 06:00:00 13.2 5 Este 20 Nordeste 0 -- -- 68
2019-05-31 05:00:00 14.2 11 Nordeste 17 Nordeste 0 -- -- 64
2019-05-31 04:00:00 14.3 5 Nordeste 22 Nordeste 0 -- -- 62
2019-05-31 03:00:00 15.9 15 Nordeste 23 Nordeste 0 -- -- 56
2019-05-31 02:00:00 15.7 14 Nordeste 24 Nordeste 0 -- -- 57
2019-05-31 01:00:00 14.6 12 Nordeste 16 Nordeste 0 -- -- 59
2019-05-31 00:00:00 16.6 10 Nordeste 25 Este 0 -- -- 51
2019-05-30 23:00:00 20.9 15 Nordeste 28 Este 0 -- -- 38
2019-05-30 22:00:00 23.8 19 Este 27 Nordeste 0 -- -- 31
2019-05-30 21:00:00 27.1 16 Este 29 Nordeste 0 -- -- 27
2019-05-30 20:00:00 28.9 18 Nordeste 32 Nordeste 0 -- -- 24
2019-05-30 19:00:00 29.7 17 Nordeste 31 Nordeste 0 -- -- 23
2019-05-30 18:00:00 29.9 17 Nordeste 37 Norte 0 -- -- 21
2019-05-30 17:00:00 30 16 Norte 30 Nordeste 0 -- -- 22
2019-05-30 16:00:00 29.3 12 Nordeste 31 Este 0 -- -- 23
2019-05-30 15:00:00 28 10 Este 30 Este 0 -- -- 23
2019-05-30 14:00:00 26.5 10 Nordeste 24 Nordeste 0 -- -- 27
2019-05-30 13:00:00 24.7 9 Nordeste 24 Nordeste 0 -- -- 34
2019-05-30 12:00:00 22.8 10 Este 25 Este 0 -- -- 38
2019-05-30 11:00:00 19.7 9 Nordeste 18 Este 0 -- -- 47
2019-05-30 10:00:00 17.8 9 Este 16 Este 0 -- -- 49
2019-05-30 09:00:00 13.6 7 Nordeste 15 Nordeste 0 -- -- 63
2019-05-30 08:00:00 9.8 14 Nordeste 18 Nordeste 0 -- -- 77
2019-05-30 07:00:00 7.9 10 Norte 15 Nordeste 0 -- -- 86
2019-05-30 06:00:00 8.8 7 Norte 13 Nordeste 0 -- -- 83
2019-05-30 05:00:00 10 8 Nordeste 15 Nordeste 0 -- -- 78
2019-05-30 04:00:00 10.8 11 Nordeste 24 Nordeste 0 -- -- 78
2019-05-30 03:00:00 10.3 8 Nordeste 17 Nordeste 0 -- -- 78
2019-05-30 02:00:00 11.4 12 Nordeste 17 Nordeste 0 -- -- 72
2019-05-30 01:00:00 13.5 10 Nordeste 26 Este 0 -- -- 65
2019-05-30 00:00:00 15.2 15 Este 34 Este 0 -- -- 59
2019-05-29 23:00:00 17.2 19 Nordeste 27 Nordeste 0 -- -- 52
2019-05-29 22:00:00 18.1 16 Este 29 Este 0 -- -- 51
2019-05-29 21:00:00 22.1 21 Este 28 Este 0 -- -- 40
2019-05-29 20:00:00 24.1 17 Este 30 Este 0 -- -- 35
2019-05-29 19:00:00 24.5 14 Nordeste 31 Este 0 -- -- 33
2019-05-29 18:00:00 24.9 15 Nordeste 31 Nordeste 0 -- -- 31
2019-05-29 17:00:00 24.2 15 Nordeste 33 Nordeste 0 -- -- 32
2019-05-29 16:00:00 23.6 19 Nordeste 33 Norte 0 -- -- 33
2019-05-29 15:00:00 23.1 12 Nordeste 30 Este 0 -- -- 35
2019-05-29 14:00:00 21.1 12 Nordeste 37 Este 0 -- -- 39
2019-05-29 13:00:00 19.3 17 Este 30 Este 0 -- -- 42
2019-05-29 12:00:00 17.3 10 Este 27 Este 0 -- -- 46
2019-05-29 11:00:00 15.9 17 Nordeste 26 Este 0 -- -- 50
2019-05-29 10:00:00 13.8 11 Este 22 Este 0 -- -- 57
2019-05-29 09:00:00 12.2 7 Este 11 Este 0 -- -- 63
2019-05-29 08:00:00 8.5 6 Nordeste 9 Nordeste 0 -- -- 75
2019-05-29 07:00:00 5 8 Nordeste 12 Nordeste 0 -- -- 88
2019-05-29 06:00:00 5.2 8 Nordeste 10 Nordeste 0 -- -- 85
2019-05-29 05:00:00 6.2 6 Nordeste 14 Nordeste 0 -- -- 81
2019-05-29 04:00:00 6.9 8 Nordeste 15 Este 0 -- -- 78
2019-05-29 03:00:00 8.3 12 Nordeste 17 Este 0 -- -- 72
2019-05-29 02:00:00 9.2 13 Nordeste 24 Nordeste 0 -- -- 68
2019-05-29 01:00:00 10 18 Nordeste 32 Nordeste 0 -- -- 64
2019-05-29 00:00:00 11.6 22 Nordeste 33 Nordeste 0 -- -- 55
2019-05-28 23:00:00 13.2 25 Nordeste 40 Nordeste 0 -- -- 50
2019-05-28 22:00:00 15.5 30 Nordeste 43 Nordeste 0 -- -- 48
2019-05-28 21:00:00 19 29 Nordeste 42 Nordeste 0 -- -- 42
2019-05-28 20:00:00 22.4 23 Norte 39 Nordeste 0 -- -- 28
2019-05-28 19:00:00 24.1 21 Norte 37 Norte 0 -- -- 27
2019-05-28 18:00:00 24.8 21 Norte 33 Noroeste 0 -- -- 23
2019-05-28 17:00:00 23.4 18 Norte 32 Norte 0 -- -- 26
2019-05-28 16:00:00 22 15 Norte 28 Noroeste 0 -- -- 29
2019-05-28 15:00:00 21.4 9 Norte 26 Nordeste 0 -- -- 29
2019-05-28 14:00:00 20.3 15 Nordeste 29 Nordeste 0 -- -- 32
2019-05-28 13:00:00 18.2 13 Nordeste 24 Este 0 -- -- 36
2019-05-28 12:00:00 16.6 11 Nordeste 27 Nordeste 0 -- -- 43
2019-05-28 11:00:00 15.1 12 Nordeste 30 Nordeste 0 -- -- 51
2019-05-28 10:00:00 13.7 16 Nordeste 28 Nordeste 0 -- -- 57
2019-05-28 09:00:00 11.2 21 Nordeste 28 Nordeste 0 -- -- 67
2019-05-28 08:00:00 9.3 14 Nordeste 25 Nordeste 0 -- -- 73
2019-05-28 07:00:00 7.8 16 Nordeste 23 Nordeste 0 -- -- 78
2019-05-28 06:00:00 8.4 15 Este 25 Este 0 -- -- 76
2019-05-28 05:00:00 9.1 17 Nordeste 23 Nordeste 0 -- -- 74
2019-05-28 04:00:00 9.6 15 Este 25 Nordeste 0 -- -- 72
2019-05-28 03:00:00 10.1 17 Este 32 Nordeste 0 -- -- 73
2019-05-28 02:00:00 10.7 18 Nordeste 33 Nordeste 0 -- -- 76
2019-05-28 01:00:00 12.1 23 Nordeste 42 Nordeste 0 -- -- 70
2019-05-28 00:00:00 13.6 28 Nordeste 43 Nordeste 0 -- -- 68
2019-05-27 23:00:00 16 32 Nordeste 42 Nordeste 0 -- -- 62
2019-05-27 22:00:00 19.3 30 Nordeste 40 Nordeste 0 -- -- 53
2019-05-27 21:00:00 23.2 17 Norte 28 Norte 0 -- -- 32
2019-05-27 20:00:00 25.8 14 Norte 26 Norte 0 -- -- 28
2019-05-27 19:00:00 27.2 11 Norte 26 Noroeste 0 -- -- 29
2019-05-27 18:00:00 26.1 12 Norte 26 Norte 0 -- -- 29
2019-05-27 17:00:00 25 17 Nordeste 29 Nordeste 0 -- -- 33
2019-05-27 16:00:00 24.1 9 Nordeste 30 Noroeste 0 -- -- 35
2019-05-27 15:00:00 24 13 Norte 27 Noroeste 0 -- -- 36
2019-05-27 14:00:00 23.9 8 Noroeste 26 Norte 0 -- -- 38
2019-05-27 13:00:00 22.5 11 Norte 22 Norte 0 -- -- 42
2019-05-27 12:00:00 21.2 9 Norte 18 Norte 0 -- -- 42
2019-05-27 11:00:00 18.2 5 Nordeste 15 Nordeste 0 -- -- 53
2019-05-27 10:00:00 16.4 8 Este 15 Este 0 -- -- 57
2019-05-27 09:00:00 14 10 Nordeste 15 Nordeste 0 -- -- 69
2019-05-27 08:00:00 10.7 9 Norte 13 Norte 0 -- -- 82
2019-05-27 07:00:00 9 6 Nordeste 9 Norte 0 -- -- 89
2019-05-27 06:00:00 9.8 6 Nordeste 10 Nordeste 0 -- -- 84
2019-05-27 05:00:00 10.5 8 Nordeste 11 Nordeste 0 -- -- 84
2019-05-27 04:00:00 12.1 8 Nordeste 17 Nordeste 0 -- -- 78
2019-05-27 03:00:00 12.4 8 Nordeste 14 Este 0 -- -- 76
2019-05-27 02:00:00 12.6 12 Nordeste 19 Norte 0 -- -- 75
2019-05-27 01:00:00 15.5 13 Nordeste 26 Este 0 -- -- 64
2019-05-27 00:00:00 15.7 12 Nordeste 21 Nordeste 0 -- -- 60
2019-05-26 23:00:00 18.3 17 Nordeste 32 Este 0 -- -- 52
2019-05-26 22:00:00 19.8 16 Este 21 Este 0 -- -- 49
2019-05-26 21:00:00 25.5 13 Este 20 Este 0 -- -- 33
2019-05-26 20:00:00 28.3 6 Este 21 Nordeste 0 -- -- 29
2019-05-26 19:00:00 27.4 14 Nordeste 27 Nordeste 0 -- -- 29
2019-05-26 18:00:00 26.8 15 Nordeste 26 Nordeste 0 -- -- 30
2019-05-26 17:00:00 26.1 11 Norte 22 Nordeste 0 -- -- 32
2019-05-26 16:00:00 24.7 14 Nordeste 24 Nordeste 0 -- -- 34
2019-05-26 15:00:00 23 14 Nordeste 23 Nordeste 0 -- -- 38
2019-05-26 14:00:00 21.7 12 Norte 26 Norte 0 -- -- 41
2019-05-26 13:00:00 20 12 Norte 25 Nordeste 0 -- -- 44
2019-05-26 12:00:00 17.6 6 Norte 18 Nordeste 0 -- -- 54
2019-05-26 11:00:00 15.4 8 Nordeste 22 Este 0 -- -- 59
2019-05-26 10:00:00 14.2 12 Nordeste 20 Este 0 -- -- 63
2019-05-26 09:00:00 12.4 4 Nordeste 9 Este 0 -- -- 67
2019-05-26 08:00:00 10 2 Norte 6 Norte 0 -- -- 73
2019-05-26 07:00:00 5.6 4 Norte 8 Nordeste 0 -- -- 89
2019-05-26 06:00:00 6.1 5 Nordeste 11 Nordeste 0 -- -- 88
2019-05-26 05:00:00 6.5 9 Nordeste 13 Nordeste 0 -- -- 86
2019-05-26 04:00:00 7.6 12 Nordeste 15 Nordeste 0 -- -- 85
2019-05-26 03:00:00 8.7 10 Nordeste 22 Nordeste 0 -- -- 80
2019-05-26 02:00:00 9.5 14 Nordeste 22 Nordeste 0 -- -- 76
2019-05-26 01:00:00 10.8 13 Nordeste 25 Nordeste 0 -- -- 71
2019-05-26 00:00:00 12.6 19 Nordeste 28 Nordeste 0 -- -- 64
2019-05-25 23:00:00 13.6 20 Nordeste 32 Este 0 -- -- 61
2019-05-25 22:00:00 15.6 23 Este 38 Este 0 -- -- 54
2019-05-25 21:00:00 20.1 17 Este 28 Nordeste 0 -- -- 41
2019-05-25 20:00:00 22 18 Nordeste 26 Nordeste 0 -- -- 35
2019-05-25 19:00:00 22.4 16 Nordeste 32 Nordeste 0 -- -- 34
2019-05-25 18:00:00 22.5 19 Nordeste 31 Nordeste 0 -- -- 30
2019-05-25 17:00:00 22.7 17 Nordeste 30 Norte 0 -- -- 31
2019-05-25 16:00:00 22.3 11 Nordeste 31 Este 0 -- -- 34
2019-05-25 15:00:00 20.4 23 Nordeste 36 Nordeste 0 -- -- 38
2019-05-25 14:00:00 19.6 14 Este 36 Este 0 -- -- 40
2019-05-25 13:00:00 18 15 Nordeste 30 Nordeste 0 -- -- 42
2019-05-25 12:00:00 16.8 17 Nordeste 28 Nordeste 0 -- -- 47
2019-05-25 11:00:00 14.2 19 Nordeste 35 Nordeste 0 -- -- 56
2019-05-25 10:00:00 13.5 26 Nordeste 35 Nordeste 0 -- -- 61
2019-05-25 09:00:00 12.4 12 Nordeste 18 Nordeste 0 -- -- 69
2019-05-25 08:00:00 10 0 Calma 6 Sudeste 0 -- -- 74
2019-05-25 07:00:00 5.4 4 Noroeste 9 Noroeste 0 -- -- 89
2019-05-25 06:00:00 6.4 3 Nordeste 13 Este 0 -- -- 88
2019-05-25 05:00:00 6.6 10 Nordeste 19 Nordeste 0 -- -- 85
2019-05-25 04:00:00 6.6 5 Este 8 Nordeste 0 -- -- 86
2019-05-25 03:00:00 7.5 7 Nordeste 14 Nordeste 0 -- -- 84
2019-05-25 02:00:00 8.5 8 Este 16 Este 0 -- -- 81
2019-05-25 01:00:00 9.8 12 Este 30 Este 0 -- -- 74
2019-05-25 00:00:00 11.1 21 Nordeste 30 Nordeste 0 -- -- 70
2019-05-24 23:00:00 12.2 22 Nordeste 35 Nordeste 0 -- -- 65
2019-05-24 22:00:00 13.8 23 Nordeste 44 Nordeste 0 -- -- 52
2019-05-24 21:00:00 16.2 30 Nordeste 43 Nordeste 0 -- -- 48
2019-05-24 20:00:00 19.9 28 Nordeste 44 Este 0 -- -- 39
2019-05-24 19:00:00 22.6 17 Nordeste 32 Nordeste 0 -- -- 32
2019-05-24 18:00:00 22.8 19 Nordeste 33 Nordeste 0 -- -- 31
2019-05-24 17:00:00 22.2 19 Nordeste 35 Nordeste 0 -- -- 31
2019-05-24 16:00:00 21.7 20 Norte 41 Nordeste 0 -- -- 32
2019-05-24 15:00:00 21 15 Nordeste 36 Nordeste 0 -- -- 35
2019-05-24 14:00:00 19.6 17 Nordeste 31 Nordeste 0 -- -- 39
2019-05-24 13:00:00 18.3 19 Nordeste 37 Nordeste 0 -- -- 43
2019-05-24 12:00:00 17.5 21 Nordeste 38 Nordeste 0 -- -- 43
2019-05-24 11:00:00 15.9 26 Nordeste 43 Nordeste 0 -- -- 49
2019-05-24 10:00:00 14.4 28 Nordeste 39 Nordeste 0 -- -- 54
2019-05-24 09:00:00 13.1 20 Norte 32 Nordeste 0 -- -- 63
2019-05-24 08:00:00 11.8 14 Norte 25 Norte 0 -- -- 72
2019-05-24 07:00:00 8.4 12 Nordeste 18 Nordeste 0 -- -- 86
2019-05-24 06:00:00 8.8 9 Nordeste 13 Nordeste 0 -- -- 86
2019-05-24 05:00:00 10.4 7 Nordeste 20 Nordeste 0 -- -- 80
2019-05-24 04:00:00 12.2 8 Norte 15 Norte 0 -- -- 75
2019-05-24 03:00:00 11.8 6 Nordeste 22 Nordeste 0 -- -- 77
2019-05-24 02:00:00 12.6 13 Nordeste 28 Nordeste 0 -- -- 75
2019-05-24 01:00:00 12.7 19 Nordeste 32 Nordeste 0 -- -- 76
2019-05-24 00:00:00 14.2 24 Nordeste 36 Nordeste 0 -- -- 71
2019-05-23 23:00:00 17.6 18 Noroeste 33 Noroeste 0 -- -- 47
2019-05-23 22:00:00 19.3 16 Oeste 39 Oeste 0 -- -- 47
2019-05-23 21:00:00 21.8 26 Oeste 42 Oeste 0 -- -- 40
2019-05-23 20:00:00 24.4 27 Oeste 39 Oeste 0 -- -- 31
2019-05-23 19:00:00 26.3 23 Oeste 41 Oeste 0 -- -- 27
2019-05-23 18:00:00 26.1 21 Oeste 38 Oeste 0 -- -- 27
2019-05-23 17:00:00 26 24 Oeste 39 Sudoeste 0 -- -- 31
2019-05-23 16:00:00 25.7 17 Oeste 35 Oeste 0 -- -- 32
2019-05-23 15:00:00 25.5 13 Oeste 28 Sudoeste 0 -- -- 34
2019-05-23 14:00:00 24.9 11 Sudoeste 24 Sudoeste 0 -- -- 39
2019-05-23 13:00:00 23.4 11 Sudoeste 23 Sudoeste 0 -- -- 43
2019-05-23 12:00:00 21 12 Oeste 26 Oeste 0 -- -- 53
2019-05-23 11:00:00 18.9 14 Oeste 22 Oeste 0 -- -- 60
2019-05-23 10:00:00 16.5 11 Oeste 15 Oeste 0 -- -- 68
2019-05-23 09:00:00 13.9 6 Oeste 8 Oeste 0 -- -- 72
2019-05-23 08:00:00 12.4 4 Oeste 6 Oeste 0 -- -- 73
2019-05-23 07:00:00 11.1 4 Oeste 9 Oeste 0 -- -- 76
2019-05-23 06:00:00 12 9 Oeste 13 Oeste 0 -- -- 71
2019-05-23 05:00:00 12.1 13 Oeste 17 Oeste 0 -- -- 69
2019-05-23 04:00:00 11.9 10 Oeste 14 Oeste 0 -- -- 64
2019-05-23 03:00:00 13 8 Oeste 13 Oeste 0 -- -- 58
2019-05-23 02:00:00 14 7 Oeste 8 Oeste 0 -- -- 56
2019-05-23 01:00:00 15.7 0 Calma 7 Norte 0 -- -- 49
2019-05-23 00:00:00 16.8 6 Norte 12 Noroeste 0 -- -- 46
2019-05-22 23:00:00 16.9 10 Noroeste 14 Noroeste 0 -- -- 45
2019-05-22 22:00:00 19.7 11 Noroeste 15 Oeste 0 -- -- 37
2019-05-22 21:00:00 24.6 12 Oeste 24 Oeste 0 -- -- 28
2019-05-22 20:00:00 26.6 14 Oeste 24 Oeste 0 -- -- 25
2019-05-22 19:00:00 27.1 13 Oeste 29 Oeste 0 -- -- 25
2019-05-22 18:00:00 26.2 17 Oeste 28 Oeste 0 -- -- 26
2019-05-22 17:00:00 26.5 9 Noroeste 32 Oeste 0 -- -- 25
2019-05-22 16:00:00 26.2 8 Sudoeste 27 Oeste 0 -- -- 26
2019-05-22 15:00:00 25.7 6 Sur 28 Sudoeste 0 -- -- 26
2019-05-22 14:00:00 25.6 5 Sur 18 Sudoeste 0 -- -- 28
2019-05-22 13:00:00 22.7 6 Sur 12 Sur 0 -- -- 34
2019-05-22 12:00:00 20.5 5 Nordeste 10 Nordeste 0 -- -- 41
2019-05-22 11:00:00 17.8 4 Sur 12 Sur 0 -- -- 49
2019-05-22 10:00:00 15.8 5 Sudeste 17 Este 0 -- -- 54
2019-05-22 09:00:00 12.2 11 Nordeste 20 Nordeste 0 -- -- 68
2019-05-22 08:00:00 7.9 15 Nordeste 19 Nordeste 0 -- -- 80
2019-05-22 07:00:00 6.3 14 Norte 19 Norte 0 -- -- 86
2019-05-22 06:00:00 7.5 12 Nordeste 14 Nordeste 0 -- -- 82
2019-05-22 05:00:00 8.4 9 Norte 12 Norte 0 -- -- 77
2019-05-22 04:00:00 9.7 9 Norte 16 Noroeste 0 -- -- 71
2019-05-22 03:00:00 10.1 8 Nordeste 11 Norte 0 -- -- 71
2019-05-22 02:00:00 11.6 9 Nordeste 27 Nordeste 0 -- -- 63
2019-05-22 01:00:00 14.1 21 Nordeste 31 Este 0 -- -- 51
2019-05-22 00:00:00 13.4 13 Nordeste 24 Este 0 -- -- 53
2019-05-21 23:00:00 15.4 13 Nordeste 31 Este 0 -- -- 46
2019-05-21 22:00:00 18.7 21 Nordeste 26 Nordeste 0 -- -- 36
2019-05-21 21:00:00 21.7 11 Nordeste 16 Nordeste 0 -- -- 34
2019-05-21 20:00:00 23.8 9 Nordeste 22 Este 0 -- -- 27
2019-05-21 19:00:00 25.5 9 Este 18 Noroeste 0 -- -- 25
2019-05-21 18:00:00 24.3 5 Norte 20 Este 0 -- -- 26
2019-05-21 17:00:00 24.8 8 Nordeste 26 Nordeste 0 -- -- 25
2019-05-21 16:00:00 23 10 Nordeste 25 Este 0 -- -- 29
2019-05-21 15:00:00 23.6 10 Este 25 Este 0 -- -- 29
2019-05-21 14:00:00 22.2 9 Este 24 Este 0 -- -- 33
2019-05-21 13:00:00 20.6 6 Norte 16 Este 0 -- -- 37
2019-05-21 12:00:00 17.8 5 Nordeste 17 Nordeste 0 -- -- 45
2019-05-21 11:00:00 15.1 6 Nordeste 12 Nordeste 0 -- -- 57
2019-05-21 10:00:00 13.8 3 Este 9 Este 0 -- -- 62
2019-05-21 09:00:00 12.3 7 Este 10 Este 0 -- -- 63
2019-05-21 08:00:00 7.2 6 Norte 13 Nordeste 0 -- -- 83
2019-05-21 07:00:00 5.2 11 Nordeste 14 Nordeste 0 -- -- 89
2019-05-21 06:00:00 5.9 8 Norte 14 Nordeste 0 -- -- 80
2019-05-21 05:00:00 8.1 4 Nordeste 9 Nordeste 0 -- -- 73
2019-05-21 04:00:00 9.1 3 Sur 5 Sudeste 0 -- -- 66
2019-05-21 03:00:00 10 0 Calma 10 Este 0 -- -- 63
2019-05-21 02:00:00 10.8 5 Oeste 15 Oeste 0 -- -- 60
2019-05-21 01:00:00 10.3 10 Oeste 14 Oeste 0 -- -- 61
2019-05-21 00:00:00 11 9 Oeste 17 Oeste 0 -- -- 58